Terminal Aerodrome Forecast
Issued by NWS

Home | Current Version | Previous Version | Text Only | Print | Product List | Glossary On
Versions: 1 2 3 4 5 6 7 8 9 10 11 12 13 14 15
000
FTUS46 KMTR 201621 AAA
TAFMRY
TAF AMD
KMRY 201621Z 2016/2112 28006KT P6SM FEW025
      TEMPO 2017/2020 BKN025
     FM202000 25010G17KT P6SM BKN025
     FM210400 23008KT P6SM BKN020 BKN050
     FM210600 23008KT P6SM BKN015=

USA.gov is the U.S. government's official web portal to all federal, state and local government web resources and services.